Terminal Aerodrome Forecast
Issued by NWS

Home | Current Version | Previous Version | Text Only | Print | Product List | Glossary On
Versions: 1 2 3 4 5 6 7 8 9 10 11 12 13 14 15 16
000
FTUS43 KDVN 241100
TAFBRL
TAF
KBRL 241130Z 2412/2512 VRB02KT 1SM BR OVC004
      TEMPO 2412/2414 1/4SM FG VV002
     FM241500 19006KT 4SM BR OVC015
     FM241800 19010KT P6SM BKN025
     FM250000 18005KT 4SM BR BKN015
     FM250900 30005KT P6SM SCT250=

USA.gov is the U.S. government's official web portal to all federal, state and local government web resources and services.